createdAt,value
2019-05-30T00:01:12.727Z,13.18
2019-05-30T00:03:43.249Z,13.14
2019-05-30T00:06:13.837Z,13.20
2019-05-30T00:08:44.485Z,13.17
2019-05-30T00:11:15.061Z,13.06
2019-05-30T00:13:45.941Z,13.04
2019-05-30T00:16:16.779Z,12.91
2019-05-30T00:18:47.485Z,12.72
2019-05-30T00:21:19.552Z,12.58
2019-05-30T00:23:50.557Z,12.69
2019-05-30T00:26:21.281Z,12.81
2019-05-30T00:28:52.021Z,12.80
2019-05-30T00:31:23.021Z,12.79
2019-05-30T00:33:53.828Z,12.69
2019-05-30T00:36:24.712Z,12.67
2019-05-30T00:38:55.674Z,12.71
2019-05-30T00:41:27.493Z,12.57
2019-05-30T00:43:58.309Z,12.60
2019-05-30T00:46:28.951Z,12.61
2019-05-30T00:49:00.172Z,12.50
2019-05-30T00:51:31.004Z,12.53
2019-05-30T00:54:02.871Z,12.59
2019-05-30T00:56:33.668Z,12.61
2019-05-30T00:59:04.937Z,12.63
2019-05-30T01:01:35.931Z,12.59
2019-05-30T01:04:07.108Z,12.59
2019-05-30T01:06:38.046Z,12.62
2019-05-30T01:09:08.998Z,12.60
2019-05-30T01:11:39.761Z,12.64
2019-05-30T01:14:10.460Z,12.59
2019-05-30T01:16:42.694Z,12.70
2019-05-30T01:19:13.809Z,12.62
2019-05-30T01:21:44.728Z,12.60
2019-05-30T01:24:15.638Z,12.49
2019-05-30T01:26:46.506Z,12.50
2019-05-30T01:29:17.237Z,12.45
2019-05-30T01:31:48.182Z,12.42
2019-05-30T01:34:18.658Z,12.44
2019-05-30T01:36:49.287Z,12.43
2019-05-30T01:39:19.763Z,12.42
2019-05-30T01:41:50.318Z,12.45
2019-05-30T01:44:20.790Z,12.39
2019-05-30T01:46:51.346Z,12.37
2019-05-30T01:49:21.821Z,12.41
2019-05-30T01:51:52.322Z,12.33
2019-05-30T01:54:22.861Z,12.34
2019-05-30T01:56:53.381Z,12.21
2019-05-30T01:59:23.896Z,12.20
2019-05-30T02:01:54.413Z,12.27
2019-05-30T02:04:25.107Z,12.24
2019-05-30T02:06:55.551Z,12.24
2019-05-30T02:09:26.109Z,12.29
2019-05-30T02:11:56.621Z,12.24
2019-05-30T02:14:27.589Z,12.26
2019-05-30T02:16:59.494Z,12.18
2019-05-30T02:19:30.280Z,12.15
2019-05-30T02:22:01.660Z,12.13
2019-05-30T02:24:32.703Z,12.17
2019-05-30T02:27:04.193Z,12.05
2019-05-30T02:29:35.985Z,12.10
2019-05-30T02:32:07.665Z,12.05
2019-05-30T02:34:39.803Z,11.96
2019-05-30T02:37:12.697Z,12.00
2019-05-30T02:39:43.011Z,12.09
2019-05-30T02:42:13.846Z,12.08
2019-05-30T02:44:45.449Z,12.09
2019-05-30T02:47:16.255Z,12.07
2019-05-30T02:49:47.202Z,12.10
2019-05-30T02:52:18.016Z,12.08
2019-05-30T02:54:48.674Z,12.05
2019-05-30T02:57:19.636Z,12.04
2019-05-30T02:59:50.538Z,11.99
2019-05-30T03:02:21.323Z,11.99
2019-05-30T03:04:52.070Z,12.02
2019-05-30T03:07:23.072Z,12.01
2019-05-30T03:09:54.242Z,11.93
2019-05-30T03:12:25.705Z,11.84
2019-05-30T03:14:56.431Z,11.70
2019-05-30T03:17:26.972Z,11.70
2019-05-30T03:19:57.461Z,11.69
2019-05-30T03:22:27.940Z,11.74
2019-05-30T03:24:58.549Z,11.68
2019-05-30T03:27:29.062Z,11.76
2019-05-30T03:29:59.681Z,11.69
2019-05-30T03:33:02.570Z,11.70
2019-05-30T03:35:06.175Z,11.74
2019-05-30T03:37:34.563Z,11.68
2019-05-30T03:40:05.436Z,11.70
2019-05-30T03:42:35.901Z,11.66
2019-05-30T03:45:10.739Z,11.60
2019-05-30T03:47:42.739Z,11.57
2019-05-30T03:50:17.627Z,11.65
2019-05-30T03:52:49.535Z,11.60
2019-05-30T03:55:22.117Z,11.55
2019-05-30T03:58:00.456Z,11.61
2019-05-30T04:00:41.218Z,11.65
2019-05-30T04:03:19.215Z,11.61
2019-05-30T04:05:53.509Z,11.65
2019-05-30T04:08:25.142Z,11.63
2019-05-30T04:10:59.078Z,11.66
2019-05-30T04:14:01.421Z,11.46
2019-05-30T04:16:34.342Z,11.40
2019-05-30T04:19:04.959Z,11.40
2019-05-30T04:21:35.719Z,11.39
2019-05-30T04:24:09.550Z,11.36
2019-05-30T04:26:40.512Z,11.41
2019-05-30T04:29:12.299Z,11.37
2019-05-30T04:31:44.755Z,11.39
2019-05-30T04:34:17.238Z,11.55
2019-05-30T04:36:52.964Z,11.60
2019-05-30T04:39:20.782Z,11.64
2019-05-30T04:41:51.624Z,11.68
2019-05-30T04:44:22.226Z,11.70
2019-05-30T04:46:52.894Z,11.79
2019-05-30T04:49:23.618Z,11.81
2019-05-30T04:51:54.324Z,11.89
2019-05-30T04:54:26.122Z,11.98
2019-05-30T04:56:56.748Z,12.02
2019-05-30T04:59:27.370Z,12.07
2019-05-30T05:01:57.849Z,12.15
2019-05-30T05:04:28.321Z,12.20
2019-05-30T05:06:58.944Z,12.17
2019-05-30T05:09:29.417Z,12.14
2019-05-30T05:11:59.905Z,12.25
2019-05-30T05:14:30.477Z,12.36
2019-05-30T05:17:00.951Z,12.35
2019-05-30T05:19:31.457Z,12.53
2019-05-30T05:22:01.931Z,12.52
2019-05-30T05:24:33.428Z,12.66
2019-05-30T05:27:03.902Z,12.77
2019-05-30T05:29:34.434Z,12.85
2019-05-30T05:32:04.935Z,13.06
2019-05-30T05:34:35.441Z,12.93
2019-05-30T05:37:06.050Z,13.15
2019-05-30T05:39:36.962Z,13.31
2019-05-30T05:42:07.702Z,13.42
2019-05-30T05:44:38.481Z,13.62
2019-05-30T05:47:09.270Z,13.66
2019-05-30T05:49:40.159Z,13.78
2019-05-30T05:52:12.116Z,13.57
2019-05-30T05:54:42.689Z,13.81
2019-05-30T05:57:13.204Z,13.47
2019-05-30T05:59:43.825Z,14.09
2019-05-30T06:02:14.482Z,13.96
2019-05-30T06:04:45.098Z,14.33
2019-05-30T06:07:16.079Z,14.63
2019-05-30T06:09:46.655Z,14.10
2019-05-30T06:12:18.245Z,14.32
2019-05-30T06:14:48.751Z,14.23
2019-05-30T06:17:19.271Z,14.11
2019-05-30T06:19:49.871Z,14.25
2019-05-30T06:22:21.374Z,14.83
2019-05-30T06:24:51.926Z,15.09
2019-05-30T06:27:22.457Z,15.21
2019-05-30T06:29:52.937Z,15.26
2019-05-30T06:32:24.670Z,15.46
2019-05-30T06:34:56.173Z,15.62
2019-05-30T06:37:27.297Z,15.95
2019-05-30T06:39:58.707Z,16.01
2019-05-30T06:42:30.311Z,15.84
2019-05-30T06:45:00.902Z,15.85
2019-05-30T06:47:31.377Z,15.91
2019-05-30T06:50:01.896Z,15.83
2019-05-30T06:52:32.473Z,15.94
2019-05-30T06:55:03.065Z,16.04
2019-05-30T06:57:33.544Z,16.24
2019-05-30T07:00:04.304Z,16.33
2019-05-30T07:02:34.979Z,16.44
2019-05-30T07:05:06.960Z,16.53
2019-05-30T07:07:37.946Z,16.43
2019-05-30T07:10:09.186Z,16.58
2019-05-30T07:12:39.729Z,16.74
2019-05-30T07:15:10.837Z,16.81
2019-05-30T07:17:41.462Z,16.82
2019-05-30T07:20:12.840Z,16.77
2019-05-30T07:22:43.445Z,17.11
2019-05-30T07:25:14.277Z,17.27
2019-05-30T07:27:44.790Z,17.34
2019-05-30T07:30:15.664Z,17.04
2019-05-30T07:32:46.179Z,17.05
2019-05-30T07:35:17.211Z,17.07
2019-05-30T07:37:47.835Z,16.93
2019-05-30T07:40:19.822Z,16.91
2019-05-30T07:42:50.912Z,17.09
2019-05-30T07:45:22.647Z,17.19
2019-05-30T07:47:53.410Z,17.56
2019-05-30T07:50:24.504Z,17.83
2019-05-30T07:52:55.247Z,17.72
2019-05-30T07:55:26.923Z,17.33
2019-05-30T07:57:57.674Z,17.85
2019-05-30T08:00:29.577Z,17.81
2019-05-30T08:03:00.374Z,17.94
2019-05-30T08:05:31.214Z,17.89
2019-05-30T08:08:02.051Z,17.62
2019-05-30T08:10:34.009Z,17.88
2019-05-30T08:13:04.914Z,18.19
2019-05-30T08:15:38.766Z,18.42
2019-05-30T08:18:08.227Z,18.06
2019-05-30T08:20:39.175Z,18.46
2019-05-30T08:23:10.163Z,18.18
2019-05-30T08:25:41.013Z,18.26
2019-05-30T08:28:11.880Z,18.22
2019-05-30T08:30:42.536Z,18.41
2019-05-30T08:33:13.378Z,18.47
2019-05-30T08:35:50.031Z,18.54
2019-05-30T08:38:16.993Z,18.71
2019-05-30T08:40:47.931Z,18.88
2019-05-30T08:43:18.672Z,19.11
2019-05-30T08:45:49.402Z,18.88
2019-05-30T08:48:20.002Z,18.99
2019-05-30T08:50:50.662Z,19.14
2019-05-30T08:53:21.401Z,19.26
2019-05-30T08:55:51.963Z,18.98
2019-05-30T08:58:23.317Z,19.49
2019-05-30T09:00:54.129Z,19.43
2019-05-30T09:03:24.613Z,19.24
2019-05-30T09:06:03.310Z,19.57
2019-05-30T09:08:27.308Z,19.50
2019-05-30T09:10:57.880Z,19.64
2019-05-30T09:13:28.397Z,19.64
2019-05-30T09:15:59.201Z,19.76
2019-05-30T09:18:29.712Z,19.72
2019-05-30T09:21:00.317Z,19.65
2019-05-30T09:23:30.796Z,19.87
2019-05-30T09:26:01.315Z,19.53
2019-05-30T09:28:33.019Z,19.68
2019-05-30T09:31:03.498Z,19.62
2019-05-30T09:33:34.021Z,19.51
2019-05-30T09:36:13.285Z,19.73
2019-05-30T09:38:36.960Z,20.03
2019-05-30T09:41:07.761Z,19.89
2019-05-30T09:43:39.833Z,19.94
2019-05-30T09:46:11.112Z,19.80
2019-05-30T09:48:43.174Z,19.94
2019-05-30T09:51:14.125Z,19.86
2019-05-30T09:53:45.972Z,20.07
2019-05-30T09:56:17.893Z,19.89
2019-05-30T09:58:49.800Z,19.83
2019-05-30T10:01:20.566Z,20.09
2019-05-30T10:03:52.329Z,20.04
2019-05-30T10:06:29.336Z,20.11
2019-05-30T10:08:56.554Z,20.25
2019-05-30T10:11:27.333Z,20.60
2019-05-30T10:13:59.396Z,20.35
2019-05-30T10:16:30.982Z,20.33
2019-05-30T10:19:01.714Z,20.47
2019-05-30T10:21:32.577Z,20.72
2019-05-30T10:24:03.287Z,20.77
2019-05-30T10:26:34.213Z,20.87
2019-05-30T10:29:05.150Z,21.05
2019-05-30T10:31:35.759Z,21.16
2019-05-30T10:34:06.872Z,20.99
2019-05-30T10:36:44.271Z,20.80
2019-05-30T10:39:10.388Z,21.00
2019-05-30T10:41:41.154Z,20.95
2019-05-30T10:44:11.953Z,21.02
2019-05-30T10:46:42.771Z,20.97
2019-05-30T10:49:13.664Z,21.07
2019-05-30T10:51:46.193Z,20.90
2019-05-30T10:54:16.863Z,21.29
2019-05-30T10:56:48.419Z,21.18
2019-05-30T10:59:20.105Z,21.23
2019-05-30T11:01:50.801Z,20.91
2019-05-30T11:04:21.817Z,21.11
2019-05-30T11:07:21.084Z,21.04
2019-05-30T11:09:57.766Z,21.20
2019-05-30T11:12:28.553Z,21.45
2019-05-30T11:14:59.288Z,21.61
2019-05-30T11:17:29.858Z,22.01
2019-05-30T11:20:00.359Z,22.06
2019-05-30T11:22:30.896Z,22.23
2019-05-30T11:25:01.434Z,22.31
2019-05-30T11:27:31.957Z,22.25
2019-05-30T11:30:02.412Z,21.99
2019-05-30T11:32:33.015Z,22.33
2019-05-30T11:35:03.507Z,22.59
2019-05-30T11:37:34.013Z,22.09
2019-05-30T11:40:04.815Z,22.40
2019-05-30T11:42:36.335Z,22.43
2019-05-30T11:45:07.518Z,22.38
2019-05-30T11:47:37.989Z,22.42
2019-05-30T11:50:08.907Z,22.29
2019-05-30T11:52:39.420Z,22.31
2019-05-30T11:55:10.199Z,22.37
2019-05-30T11:57:40.740Z,22.34
2019-05-30T12:00:11.793Z,22.42
2019-05-30T12:02:42.893Z,22.54
2019-05-30T12:05:14.054Z,22.49
2019-05-30T12:07:44.943Z,22.73
2019-05-30T12:10:16.261Z,22.74
2019-05-30T12:12:47.267Z,22.98
2019-05-30T12:15:18.276Z,22.98
2019-05-30T12:17:49.325Z,22.29
2019-05-30T12:20:20.522Z,22.47
2019-05-30T12:22:51.798Z,22.40
2019-05-30T12:25:22.955Z,22.53
2019-05-30T12:27:54.007Z,22.80
2019-05-30T12:30:27.040Z,23.04
2019-05-30T12:32:58.340Z,23.27
2019-05-30T12:35:29.212Z,22.71
2019-05-30T12:38:04.585Z,22.70
2019-05-30T12:40:32.676Z,23.01
2019-05-30T12:43:04.953Z,23.03
2019-05-30T12:45:37.065Z,22.93
2019-05-30T12:48:07.861Z,23.14
2019-05-30T12:50:38.693Z,23.58
2019-05-30T12:53:09.586Z,23.33
2019-05-30T12:55:40.397Z,23.26
2019-05-30T12:58:11.158Z,23.47
2019-05-30T13:00:42.533Z,23.61
2019-05-30T13:03:13.440Z,23.49
2019-05-30T13:05:44.309Z,23.64
2019-05-30T13:08:21.571Z,24.08
2019-05-30T13:10:47.942Z,24.06
2019-05-30T13:13:18.799Z,23.98
2019-05-30T13:15:49.588Z,24.16
2019-05-30T13:18:20.600Z,23.95
2019-05-30T13:20:51.381Z,23.78
2019-05-30T13:23:22.367Z,23.77
2019-05-30T13:25:53.229Z,24.18
2019-05-30T13:28:24.102Z,24.49
2019-05-30T13:30:56.105Z,24.90
2019-05-30T13:33:26.730Z,24.38
2019-05-30T13:35:57.342Z,24.45
2019-05-30T13:38:27.822Z,24.42
2019-05-30T13:40:59.339Z,24.21
2019-05-30T13:43:29.837Z,24.36
2019-05-30T13:46:00.330Z,25.40
2019-05-30T13:48:30.809Z,25.84
2019-05-30T13:51:01.322Z,25.54
2019-05-30T13:53:31.820Z,26.11
2019-05-30T13:56:03.442Z,25.63
2019-05-30T13:58:33.907Z,26.37
2019-05-30T14:01:09.400Z,26.76
2019-05-30T14:03:37.249Z,26.68
2019-05-30T14:06:08.378Z,27.23
2019-05-30T14:08:41.942Z,27.49
2019-05-30T14:11:11.841Z,27.44
2019-05-30T14:13:42.633Z,27.21
2019-05-30T14:16:13.514Z,27.19
2019-05-30T14:18:44.399Z,26.84
2019-05-30T14:21:15.415Z,26.94
2019-05-30T14:23:46.193Z,25.36
2019-05-30T14:26:16.897Z,25.63
2019-05-30T14:28:47.541Z,26.29
2019-05-30T14:31:18.351Z,26.44
2019-05-30T14:33:49.125Z,25.97
2019-05-30T14:36:19.982Z,26.19
2019-05-30T14:38:58.245Z,26.26
2019-05-30T14:41:23.066Z,26.12
2019-05-30T14:43:53.784Z,25.78
2019-05-30T14:46:24.496Z,26.17
2019-05-30T14:48:55.095Z,25.77
2019-05-30T14:51:25.996Z,26.25
2019-05-30T14:53:56.869Z,26.28
2019-05-30T14:56:27.661Z,24.95
2019-05-30T14:58:58.539Z,25.58
2019-05-30T15:01:29.585Z,25.56
2019-05-30T15:04:00.444Z,25.62
2019-05-30T15:06:31.233Z,25.78
2019-05-30T15:09:15.313Z,25.64
2019-05-30T15:11:34.661Z,25.18
2019-05-30T15:14:06.668Z,24.09
2019-05-30T15:16:37.777Z,24.21
2019-05-30T15:19:08.577Z,24.89
2019-05-30T15:21:39.414Z,24.57
2019-05-30T15:24:12.751Z,24.89
2019-05-30T15:26:43.910Z,25.07
2019-05-30T15:29:14.789Z,25.11
2019-05-30T15:31:45.699Z,25.08
2019-05-30T15:34:16.845Z,25.09
2019-05-30T15:36:47.413Z,25.05
2019-05-30T15:39:31.606Z,24.27
2019-05-30T15:41:50.214Z,25.22
2019-05-30T15:44:20.906Z,25.14
2019-05-30T15:46:51.435Z,25.42
2019-05-30T15:49:21.913Z,25.15
2019-05-30T15:51:52.434Z,24.75
2019-05-30T15:54:22.914Z,25.45
2019-05-30T15:56:53.394Z,25.14
2019-05-30T15:59:23.901Z,25.35
2019-05-30T16:01:54.390Z,25.38
2019-05-30T16:04:25.004Z,25.80
2019-05-30T16:06:55.486Z,25.73
2019-05-30T16:09:26.422Z,26.02
2019-05-30T16:11:57.126Z,25.77
2019-05-30T16:14:27.782Z,25.68
2019-05-30T16:16:58.618Z,25.89
2019-05-30T16:19:29.444Z,26.23
2019-05-30T16:22:00.194Z,26.17
2019-05-30T16:24:31.449Z,25.72
2019-05-30T16:27:02.273Z,25.82
2019-05-30T16:29:33.017Z,26.25
2019-05-30T16:32:03.830Z,26.25
2019-05-30T16:34:34.544Z,26.17
2019-05-30T16:37:05.361Z,25.63
2019-05-30T16:39:36.046Z,25.53
2019-05-30T16:42:06.977Z,25.10
2019-05-30T16:44:37.783Z,25.18
2019-05-30T16:47:08.658Z,25.15
2019-05-30T16:49:39.529Z,25.11
2019-05-30T16:52:10.226Z,24.83
2019-05-30T16:54:41.233Z,25.17
2019-05-30T16:57:12.097Z,25.20
2019-05-30T16:59:42.779Z,25.09
2019-05-30T17:02:14.681Z,24.98
2019-05-30T17:04:45.817Z,24.89
2019-05-30T17:07:17.013Z,24.58
2019-05-30T17:09:47.964Z,24.97
2019-05-30T17:12:19.563Z,24.92
2019-05-30T17:14:50.446Z,24.51
2019-05-30T17:17:22.175Z,24.61
2019-05-30T17:19:53.265Z,24.41
2019-05-30T17:22:25.229Z,24.34
2019-05-30T17:24:56.841Z,24.31
2019-05-30T17:27:27.870Z,24.30
2019-05-30T17:29:58.579Z,24.43
2019-05-30T17:32:29.441Z,24.24
2019-05-30T17:35:00.389Z,24.28
2019-05-30T17:37:31.149Z,24.32
2019-05-30T17:40:01.986Z,24.20
2019-05-30T17:42:33.830Z,24.19
2019-05-30T17:45:05.599Z,24.05
2019-05-30T17:47:36.246Z,23.93
2019-05-30T17:50:07.578Z,23.98
2019-05-30T17:52:38.112Z,24.09
2019-05-30T17:55:10.155Z,24.03
2019-05-30T17:57:40.773Z,24.13
2019-05-30T18:00:12.630Z,24.06
2019-05-30T18:02:43.428Z,23.76
2019-05-30T18:05:14.795Z,23.55
2019-05-30T18:07:45.460Z,23.57
2019-05-30T18:10:16.745Z,23.41
2019-05-30T18:12:47.277Z,23.36
2019-05-30T18:15:19.426Z,23.27
2019-05-30T18:17:49.952Z,23.23
2019-05-30T18:20:21.161Z,23.10
2019-05-30T18:22:51.664Z,23.09
2019-05-30T18:25:23.500Z,22.79
2019-05-30T18:27:54.362Z,22.68
2019-05-30T18:30:38.651Z,22.19
2019-05-30T18:33:09.454Z,21.95
2019-05-30T18:35:40.327Z,21.80
2019-05-30T18:38:11.231Z,21.73
2019-05-30T18:40:42.116Z,21.55
2019-05-30T18:43:12.927Z,21.51
2019-05-30T18:45:44.285Z,21.35
2019-05-30T18:48:16.037Z,21.34
2019-05-30T18:50:46.983Z,21.32
2019-05-30T18:53:17.885Z,21.19
2019-05-30T18:55:48.671Z,21.21
2019-05-30T18:58:19.382Z,21.03
2019-05-30T19:00:50.381Z,20.90
2019-05-30T19:03:21.257Z,20.97
2019-05-30T19:05:52.036Z,20.85
2019-05-30T19:08:23.618Z,20.80
2019-05-30T19:10:54.525Z,20.79
2019-05-30T19:13:25.329Z,20.71
2019-05-30T19:15:56.359Z,20.59
2019-05-30T19:18:27.313Z,20.59
2019-05-30T19:20:58.201Z,20.48
2019-05-30T19:23:30.033Z,20.55
2019-05-30T19:26:00.798Z,20.78
2019-05-30T19:28:32.509Z,20.94
2019-05-30T19:31:03.361Z,20.87
2019-05-30T19:33:34.921Z,20.88
2019-05-30T19:36:06.008Z,20.70
2019-05-30T19:38:37.610Z,20.60
2019-05-30T19:41:08.564Z,20.58
2019-05-30T19:43:39.452Z,20.61
2019-05-30T19:46:13.161Z,20.58
2019-05-30T19:48:42.763Z,20.49
2019-05-30T19:51:13.406Z,20.46
2019-05-30T19:53:44.238Z,20.43
2019-05-30T19:56:14.937Z,20.42
2019-05-30T19:58:45.902Z,20.27
2019-05-30T20:01:16.505Z,20.21
2019-05-30T20:03:47.215Z,20.22
2019-05-30T20:06:17.750Z,20.19
2019-05-30T20:08:55.438Z,20.20
2019-05-30T20:11:20.440Z,20.24
2019-05-30T20:13:51.013Z,20.34
2019-05-30T20:16:21.550Z,20.39
2019-05-30T20:18:52.039Z,20.34
2019-05-30T20:21:22.595Z,20.37
2019-05-30T20:23:58.360Z,20.39
2019-05-30T20:26:25.280Z,20.23
2019-05-30T20:28:55.769Z,20.07
2019-05-30T20:31:26.239Z,20.05
2019-05-30T20:33:56.797Z,20.01
2019-05-30T20:36:27.437Z,20.09
2019-05-30T20:38:57.936Z,20.05
2019-05-30T20:41:29.042Z,20.05
2019-05-30T20:43:59.829Z,20.17
2019-05-30T20:46:30.829Z,20.18
2019-05-30T20:49:01.669Z,20.14
2019-05-30T20:51:34.920Z,19.98
2019-05-30T20:54:04.979Z,19.70
2019-05-30T20:56:35.657Z,19.73
2019-05-30T20:59:09.915Z,19.73
2019-05-30T21:01:39.672Z,19.61
2019-05-30T21:04:10.589Z,19.73
2019-05-30T21:06:43.128Z,19.76
2019-05-30T21:09:27.964Z,19.81
2019-05-30T21:11:47.027Z,19.79
2019-05-30T21:14:18.497Z,19.89
2019-05-30T21:16:51.786Z,19.82
2019-05-30T21:19:22.785Z,19.79
2019-05-30T21:21:53.679Z,19.72
2019-05-30T21:24:25.741Z,19.61
2019-05-30T21:26:56.402Z,19.50
2019-05-30T21:29:27.213Z,19.32
2019-05-30T21:31:58.138Z,19.28
2019-05-30T21:34:28.906Z,19.19
2019-05-30T21:36:59.857Z,19.26
2019-05-30T21:39:30.721Z,19.30
2019-05-30T21:42:01.677Z,19.24
2019-05-30T21:44:32.466Z,19.24
2019-05-30T21:47:03.440Z,19.14
2019-05-30T21:49:34.333Z,19.14
2019-05-30T21:52:05.230Z,19.06
2019-05-30T21:54:35.952Z,19.10
2019-05-30T21:57:06.794Z,18.98
2019-05-30T21:59:38.441Z,18.97
2019-05-30T22:02:09.830Z,19.05
2019-05-30T22:04:40.752Z,19.08
2019-05-30T22:07:11.452Z,19.10
2019-05-30T22:09:43.138Z,19.14
2019-05-30T22:12:14.045Z,19.19
2019-05-30T22:14:45.749Z,19.23
2019-05-30T22:17:16.506Z,19.08
2019-05-30T22:19:47.871Z,18.92
2019-05-30T22:22:18.622Z,18.84
2019-05-30T22:24:50.344Z,18.75
2019-05-30T22:27:21.253Z,18.72
2019-05-30T22:29:52.657Z,18.70
2019-05-30T22:32:23.224Z,18.85
2019-05-30T22:34:53.698Z,18.83
2019-05-30T22:37:24.201Z,18.80
2019-05-30T22:39:54.679Z,18.76
2019-05-30T22:42:25.193Z,18.74
2019-05-30T22:44:56.563Z,18.79
2019-05-30T22:47:27.099Z,18.82
2019-05-30T22:49:57.623Z,18.81
2019-05-30T22:52:28.102Z,18.74
2019-05-30T22:54:58.699Z,18.69
2019-05-30T22:57:29.176Z,18.76
2019-05-30T23:00:00.730Z,18.82
2019-05-30T23:02:32.938Z,18.83
2019-05-30T23:05:03.862Z,18.72
2019-05-30T23:07:34.748Z,18.73
2019-05-30T23:10:05.941Z,18.77
2019-05-30T23:12:36.821Z,18.73
2019-05-30T23:15:08.841Z,18.55
2019-05-30T23:17:39.416Z,18.44
2019-05-30T23:20:10.650Z,18.51
2019-05-30T23:22:41.472Z,18.51
2019-05-30T23:25:12.600Z,18.50
2019-05-30T23:27:43.437Z,18.59
2019-05-30T23:30:15.408Z,18.59
2019-05-30T23:32:46.393Z,18.65
2019-05-30T23:35:17.317Z,18.64
2019-05-30T23:37:48.488Z,18.61
2019-05-30T23:40:19.469Z,18.45
2019-05-30T23:42:50.985Z,18.40
2019-05-30T23:45:22.064Z,18.32
2019-05-30T23:47:53.524Z,18.44
2019-05-30T23:50:24.481Z,18.40
2019-05-30T23:52:56.325Z,18.37
2019-05-30T23:55:27.268Z,18.34
2019-05-30T23:57:58.663Z,18.54
